Portada
METAR-TAF:

METAR-TAF

Aeroports :

Brest, Bielorússia

latitud: 52-06-30N, longitud: 023-53-48E, altitud: 143 m

Observació

L'informe es va fer fa 48 minuts, a les 10:00 UTC
Vent 4 kt del Nord
Temperatura 17°C
Humitat 68%
Pressió 1005 hPa
Visibilitat 10 km o més
Cel ennuvolat a una alçada de 3300 ft

METAR: UMBB 171000Z 01002MPS 9999 BKN033 17/11 Q1005 R29/290050 NOSIG

Hora: 13:48 (10:48 UTC)

Pronòstic

L'informe es va fer fa 2 hores i 48 minuts, a les 08:00 UTC
Pronòstic vàlid del 17 a les 09 UTC al 17 a les 18 UTC
Vent 4 kt amb direcció variable
Visibilitat 10 km o més
Cel ennuvolat a una alçada de 2000 ft
Temporalment
l' 17 a les 09 UTC al 17 a les 15 UTC
Vent 6 kt del Nord-Oest

TAF: UMBB 170800Z 1709/1718 VRB02MPS 9999 BKN020 TEMPO 1709/1715 32003MPS

Observacions i pronòstics meteorològics de més de 4000 aeroports (METAR i TAF).

Les estacions disponibles són els punts grocs i vermells al mapa.

Posi el ratolí al punt desitjat per veure el nom de l'estació.

Feu clic per veure les observacions i els pronòstics meteorològics.

Per canviar el mapa: feu clic els botons verds amb una creu de color negre per apropar; al botó verd amb un guió per allunyar la imatge; o en les fletxes verdes per a mapes adjacents.


METAR-TAF: